メインページ
METAR-TAF:

METAR-TAF

空港 :

La Ronge, サスカチュワン州, カナダ

緯度: 55-09N, 経度: 105-16W, 海抜: 375m

現時点の気象観測

当レポートは26分前の06:00(UTC)に作成
西/北西の風 9kt
気温 -16°C
湿度 78%
気圧 1003 hPa
視程: 6.4km
高度2300ftの曇り
小雪

METAR: CYVC 150600Z 30009KT 4SM -SN OVC023 M16/M19 A2963 RMK SC8 CIG RAG /S01/ SLP075

時間: 00:26 (06:26 UTC)

予報

当レポートは2時間7分前の04:19(UTC)に作成
予報は15日の 04時(UTC)から 15日の 13時(UTC)まで有効
変向風 3kt
視程: 10km
高度2000ftの雲は散在している
高度4000ftの曇り
小雪
15日の 04時(UTC)から 15日の 06時(UTC)まで一時的に
視程: 3.2km
高度2000ftの
小雪
15日の 04時(UTC)から 15日の 06時(UTC)まで徐々に
西の風 6kt
15日の 0600時(UTC)から
西の風 6kt
視程: 10km
高度3000ftの曇り
小雪
15日の 06時(UTC)から 15日の 13時(UTC)まで一時的に
視程: 4.8km
高度800ftの雲はほとんどない
高度2000ftの曇り
小雪

TAF: CYVC 150419Z 1504/1513 VRB03KT P6SM -SN SCT020 OVC040 TEMPO 1504/1506 2SM -SN VV020 BECMG 1504/1506 27006KT FM150600 27006KT P6SM -SN OVC030 TEMPO 1506/1513 3SM -SN FEW008 OVC020 RMK NXT FCST BY 150700Z

4,000以上の空港の気象観測と天気予報(METAR報とTAF報)

利用可能な観測所は地図上に黄色い丸と赤い丸で示す。

丸の上にカーソルを重ねると観測所名を参照できる。

次にクリックすると気象観測と天気予報を参照できる。

マップの切り替え:黒色「×」印の緑ボタンをクリックして拡大、「-」印の緑ボタンをクリックして縮小、緑色の三角印をクリックして隣りの地図に切り替え


METAR-TAF: